Time;durP1;ratioP1;P1;durP2;ratioP2;P2;SDS_P1;SDS_P2;PMS_P1;PMS_P2;Temp;Humidity;BMP_temperature;BMP_pressure;BME280_temperature;BME280_humidity;BME280_pressure;Samples;Min_cycle;Max_cycle;Signal;HPM_P1;HPM_P2
2024/03/11 00:00:35;;;;;;;10.15;8.90;;;8.30;99.90;;;;;;4984353;28;20480;-79
2024/03/11 00:03:02;;;;;;;11.80;10.05;;;8.30;99.90;;;;;;4983718;28;20492;-79
2024/03/11 00:05:30;;;;;;;14.20;12.57;;;8.30;99.90;;;;;;5001347;28;20049;-79
2024/03/11 00:07:58;;;;;;;15.00;13.07;;;8.30;99.90;;;;;;5001426;28;20049;-79
2024/03/11 00:10:27;;;;;;;14.77;12.15;;;8.20;99.90;;;;;;4982512;28;20066;-80
2024/03/11 00:12:56;;;;;;;13.73;11.93;;;8.20;1.00;;;;;;4993034;28;20504;-78
2024/03/11 00:15:26;;;;;;;12.10;10.75;;;8.20;99.90;;;;;;4980606;28;20413;-79
2024/03/11 00:17:53;;;;;;;15.43;12.30;;;8.10;1.00;;;;;;4984671;28;20112;-79
2024/03/11 00:20:20;;;;;;;14.02;12.10;;;8.10;1.00;;;;;;4981446;28;20046;-79
2024/03/11 00:22:49;;;;;;;14.48;12.23;;;8.10;1.00;;;;;;4985115;28;20096;-79
2024/03/11 00:25:16;;;;;;;12.88;11.48;;;8.10;1.00;;;;;;4987578;28;20208;-79
2024/03/11 00:27:44;;;;;;;11.45;9.50;;;8.10;1.00;;;;;;4986874;28;20049;-80
2024/03/11 00:30:11;;;;;;;10.85;9.20;;;8.10;5.00;;;;;;5002516;28;20065;-79
2024/03/11 00:32:45;;;;;;;12.13;10.55;;;8.10;68.40;;;;;;4987072;28;20069;-79
2024/03/11 00:35:14;;;;;;;10.48;9.07;;;8.10;1.00;;;;;;5005241;28;20469;-79
2024/03/11 00:37:41;;;;;;;12.15;10.80;;;8.10;1.00;;;;;;4986850;28;20060;-79
2024/03/11 00:40:09;;;;;;;14.15;11.60;;;8.10;1.00;;;;;;4987704;28;20181;-79
2024/03/11 00:42:39;;;;;;;15.32;11.40;;;8.00;1.00;;;;;;5003278;28;20064;-79
2024/03/11 00:45:07;;;;;;;14.32;12.10;;;8.00;12.30;;;;;;5002033;28;20057;-79
2024/03/11 00:47:34;;;;;;;13.60;10.80;;;8.00;56.80;;;;;;4987735;28;20061;-79
2024/03/11 00:50:06;;;;;;;10.65;9.00;;;8.00;73.30;;;;;;4987682;28;20129;-79
2024/03/11 00:52:34;;;;;;;9.30;7.57;;;8.00;99.90;;;;;;4988588;28;20061;-79
2024/03/11 00:55:02;;;;;;;9.10;7.65;;;8.10;99.90;;;;;;4987065;28;20069;-78
2024/03/11 00:57:32;;;;;;;10.48;8.10;;;8.10;99.90;;;;;;4970564;28;20077;-79
2024/03/11 00:59:59;;;;;;;11.60;9.18;;;8.10;99.90;;;;;;4986737;28;20049;-79
2024/03/11 01:02:26;;;;;;;11.23;9.50;;;8.10;99.90;;;;;;5004417;28;20429;-79
2024/03/11 01:04:53;;;;;;;10.98;8.90;;;8.10;99.90;;;;;;5002854;28;20050;-79
2024/03/11 01:07:20;;;;;;;10.32;8.93;;;8.10;99.90;;;;;;5004282;28;20180;-79
2024/03/11 01:10:01;;;;;;;10.68;7.97;;;8.20;99.90;;;;;;4988188;28;20068;-79
2024/03/11 01:12:28;;;;;;;9.38;8.32;;;8.20;99.90;;;;;;5003892;28;20438;-80
2024/03/11 01:14:55;;;;;;;11.43;9.38;;;8.10;33.40;;;;;;4985612;28;20089;-79
2024/03/11 01:17:22;;;;;;;9.25;7.75;;;8.10;53.20;;;;;;4986738;28;20509;-80
2024/03/11 01:19:49;;;;;;;11.52;10.10;;;8.10;99.90;;;;;;4986498;28;20058;-79
2024/03/11 01:22:16;;;;;;;10.10;8.63;;;8.10;27.30;;;;;;4986506;28;20053;-80
2024/03/11 01:24:43;;;;;;;12.45;9.95;;;8.10;92.80;;;;;;5003071;28;20591;-80
2024/03/11 01:27:10;;;;;;;10.40;8.93;;;8.10;98.40;;;;;;4986463;28;20203;-80
2024/03/11 01:29:38;;;;;;;11.27;8.85;;;8.10;99.90;;;;;;4986036;28;20091;-80
2024/03/11 01:32:07;;;;;;;12.07;10.10;;;8.10;86.30;;;;;;4987039;28;20053;-79
2024/03/11 01:34:35;;;;;;;14.00;11.55;;;8.00;26.00;;;;;;4985791;28;20061;-80
2024/03/11 01:37:02;;;;;;;15.82;12.48;;;8.00;45.30;;;;;;5002471;28;20046;-79
2024/03/11 01:39:42;;;;;;;14.77;12.52;;;8.00;91.00;;;;;;4986205;28;20050;-80
2024/03/11 01:42:14;;;;;;;17.90;14.55;;;8.00;99.90;;;;;;4988352;28;20049;-80
2024/03/11 01:44:45;;;;;;;17.55;14.05;;;8.00;99.90;;;;;;4985061;28;20054;-79
2024/03/11 01:47:12;;;;;;;16.67;13.00;;;8.00;99.90;;;;;;4986045;28;20133;-80
2024/03/11 01:49:41;;;;;;;14.10;11.35;;;8.00;99.90;;;;;;5002907;28;20138;-80
2024/03/11 01:52:10;;;;;;;16.02;12.88;;;8.00;99.90;;;;;;5003579;28;20460;-80
2024/03/11 01:54:40;;;;;;;16.33;13.32;;;8.00;99.90;;;;;;4985592;28;20473;-80
2024/03/11 01:57:12;;;;;;;22.17;17.23;;;8.00;99.90;;;;;;4985682;28;20049;-80
2024/03/11 01:59:39;;;;;;;18.45;15.65;;;7.90;99.90;;;;;;4984814;28;20100;-80
2024/03/11 02:02:08;;;;;;;20.92;16.23;;;7.90;99.90;;;;;;4985965;28;20136;-79
2024/03/11 02:04:36;;;;;;;17.77;14.45;;;7.90;99.90;;;;;;4986375;28;20072;-80
2024/03/11 02:07:04;;;;;;;14.23;12.52;;;7.90;99.90;;;;;;4986197;28;20057;-80
2024/03/11 02:09:31;;;;;;;14.32;11.48;;;7.90;99.90;;;;;;4985499;28;20053;-80
2024/03/11 02:11:59;;;;;;;12.93;10.65;;;7.90;99.90;;;;;;4985689;28;20628;-80
2024/03/11 02:14:26;;;;;;;14.27;12.73;;;8.00;99.90;;;;;;4984276;28;20137;-80
2024/03/11 02:16:53;;;;;;;15.98;12.73;;;8.00;17.50;;;;;;4985935;28;20050;-80
2024/03/11 02:19:20;;;;;;;17.30;12.88;;;7.90;98.30;;;;;;4985319;28;20468;-80
2024/03/11 02:21:47;;;;;;;19.50;14.77;;;7.90;1.00;;;;;;4985596;28;20046;-79
2024/03/11 02:24:15;;;;;;;16.67;13.52;;;7.90;1.00;;;;;;4985078;28;20058;-81
2024/03/11 02:26:45;;;;;;;12.73;11.32;;;7.90;67.20;;;;;;4985369;28;20112;-80
2024/03/11 02:29:16;;;;;;;12.77;9.82;;;7.90;99.90;;;;;;4983843;28;20132;-80
2024/03/11 02:31:44;;;;;;;14.45;11.75;;;8.00;99.90;;;;;;4975049;28;20477;-79
2024/03/11 02:34:11;;;;;;;18.50;13.60;;;8.00;1.00;;;;;;4967766;28;20076;-80
2024/03/11 02:36:46;;;;;;;17.13;14.40;;;8.00;99.90;;;;;;4953545;28;20093;-80
2024/03/11 02:39:36;;;;;;;17.27;12.75;;;7.90;1.00;;;;;;4968950;28;20076;-80
2024/03/11 02:42:04;;;;;;;18.48;13.95;;;7.90;1.00;;;;;;4986463;28;20470;-79
2024/03/11 02:44:31;;;;;;;17.38;12.98;;;7.90;1.00;;;;;;4965542;28;20049;-80
2024/03/11 02:46:59;;;;;;;17.90;13.52;;;8.00;1.00;;;;;;4987855;28;20484;-79
2024/03/11 02:49:27;;;;;;;17.52;13.68;;;7.90;1.00;;;;;;4988752;28;20080;-80
2024/03/11 02:51:54;;;;;;;13.73;12.00;;;7.90;1.00;;;;;;4988948;28;20058;-80
2024/03/11 02:54:23;;;;;;;18.13;12.75;;;7.90;17.60;;;;;;4987771;28;20149;-79
2024/03/11 02:56:50;;;;;;;16.33;13.25;;;8.00;1.00;;;;;;4988467;28;20053;-79
2024/03/11 02:59:17;;;;;;;22.10;16.77;;;7.90;1.00;;;;;;4987500;28;20068;-80
2024/03/11 03:01:45;;;;;;;23.80;17.85;;;7.90;1.00;;;;;;4988991;28;20344;-80
2024/03/11 03:04:13;;;;;;;19.95;15.38;;;7.90;1.00;;;;;;5005585;28;20509;-80
2024/03/11 03:06:40;;;;;;;19.13;14.85;;;7.80;11.80;;;;;;4988191;28;20485;-79
2024/03/11 03:09:07;;;;;;;17.88;14.65;;;7.80;1.00;;;;;;4988607;28;20476;-79
2024/03/11 03:11:35;;;;;;;16.83;13.68;;;7.90;1.00;;;;;;4988598;28;20069;-79
2024/03/11 03:14:03;;;;;;;17.23;13.43;;;7.90;1.00;;;;;;4986427;28;20177;-80
2024/03/11 03:16:30;;;;;;;20.02;14.82;;;7.90;1.00;;;;;;4988465;28;20050;-80
2024/03/11 03:18:57;;;;;;;15.77;12.80;;;7.80;1.00;;;;;;4987891;28;20635;-80
2024/03/11 03:21:25;;;;;;;12.88;10.88;;;7.90;1.00;;;;;;4988250;28;20089;-80
2024/03/11 03:23:52;;;;;;;13.55;10.85;;;7.90;1.00;;;;;;4987980;28;20583;-80
2024/03/11 03:26:20;;;;;;;11.60;9.18;;;7.90;99.90;;;;;;4988540;28;20088;-80
2024/03/11 03:28:47;;;;;;;12.57;10.10;;;8.00;1.00;;;;;;4987144;28;20053;-80
2024/03/11 03:31:14;;;;;;;11.90;9.60;;;8.00;99.90;;;;;;4988225;28;20151;-80
2024/03/11 03:33:41;;;;;;;10.52;8.75;;;8.00;99.90;;;;;;4987606;28;20046;-80
2024/03/11 03:36:08;;;;;;;11.88;10.02;;;8.00;99.90;;;;;;4988181;28;20552;-80
2024/03/11 03:38:37;;;;;;;11.95;9.98;;;8.00;99.90;;;;;;4987792;28;20153;-80
2024/03/11 03:41:04;;;;;;;14.55;11.02;;;8.00;99.90;;;;;;5005738;28;20050;-79
2024/03/11 03:43:31;;;;;;;10.50;8.10;;;8.00;99.90;;;;;;4986246;28;20049;-79
2024/03/11 03:46:01;;;;;;;10.25;8.13;;;8.00;99.90;;;;;;4988297;28;20042;-80
2024/03/11 03:48:28;;;;;;;7.72;6.47;;;8.00;99.90;;;;;;4984221;28;20057;-80
2024/03/11 03:50:55;;;;;;;7.88;6.30;;;8.10;99.90;;;;;;4986975;28;20386;-80
2024/03/11 03:53:23;;;;;;;8.02;6.13;;;8.10;99.90;;;;;;4971514;28;20058;-82
2024/03/11 03:55:50;;;;;;;8.02;5.82;;;8.10;57.70;;;;;;4987980;28;20073;-81
2024/03/11 03:58:19;;;;;;;10.00;7.07;;;8.10;99.90;;;;;;5002169;28;20385;-81
2024/03/11 04:00:45;;;;;;;10.75;9.00;;;8.20;99.90;;;;;;4988413;28;20054;-81
2024/03/11 04:03:12;;;;;;;11.00;9.82;;;8.10;7.80;;;;;;5004492;28;20140;-81
2024/03/11 04:05:40;;;;;;;20.17;13.85;;;8.10;99.90;;;;;;4971884;28;20094;-81
2024/03/11 04:08:07;;;;;;;12.63;10.52;;;8.00;99.90;;;;;;5004622;28;20145;-81
2024/03/11 04:10:34;;;;;;;15.15;12.75;;;8.10;1.00;;;;;;4987991;28;20081;-81
2024/03/11 04:13:02;;;;;;;13.73;10.68;;;8.00;99.90;;;;;;4985870;28;20410;-81
2024/03/11 04:15:29;;;;;;;14.90;12.35;;;8.00;99.90;;;;;;4987681;28;20053;-80
2024/03/11 04:17:57;;;;;;;14.35;12.27;;;8.00;99.90;;;;;;4986867;28;20060;-80
2024/03/11 04:20:27;;;;;;;15.63;11.98;;;8.00;99.90;;;;;;4987877;28;20118;-81
2024/03/11 04:22:55;;;;;;;12.57;10.70;;;8.00;99.90;;;;;;4987808;28;20072;-81
2024/03/11 04:25:26;;;;;;;15.07;11.05;;;8.00;99.90;;;;;;4987652;28;20104;-80
2024/03/11 04:27:54;;;;;;;13.88;11.40;;;8.00;99.90;;;;;;4969975;28;20394;-78
2024/03/11 04:30:26;;;;;;;16.73;12.02;;;8.00;99.90;;;;;;4987791;28;20054;-81
2024/03/11 04:32:53;;;;;;;14.32;10.50;;;8.10;37.70;;;;;;4986999;28;20574;-80
2024/03/11 04:35:25;;;;;;;17.88;14.07;;;8.10;99.90;;;;;;4987708;28;20052;-80
2024/03/11 04:37:59;;;;;;;22.58;16.80;;;8.00;1.00;;;;;;4987155;28;20046;-81
2024/03/11 04:40:32;;;;;;;21.70;16.15;;;8.00;1.00;;;;;;4987695;28;20213;-81
2024/03/11 04:42:59;;;;;;;16.08;13.02;;;8.00;1.00;;;;;;4985641;28;20046;-80
2024/03/11 04:45:26;;;;;;;14.95;11.88;;;8.00;6.40;;;;;;4987372;28;20053;-81
2024/03/11 04:47:54;;;;;;;15.25;12.38;;;8.00;99.90;;;;;;4987084;28;20406;-80
2024/03/11 04:50:24;;;;;;;15.25;12.18;;;8.00;99.90;;;;;;4987962;28;20049;-80
2024/03/11 04:52:55;;;;;;;12.00;10.23;;;8.00;1.00;;;;;;4987221;28;20549;-80
2024/03/11 04:55:22;;;;;;;11.57;10.35;;;8.00;99.90;;;;;;4987834;28;20057;-80
2024/03/11 04:57:49;;;;;;;11.85;9.32;;;8.10;99.90;;;;;;4986068;28;20077;-79
2024/03/11 05:00:17;;;;;;;14.75;11.10;;;8.10;75.10;;;;;;4986632;28;20049;-81
2024/03/11 05:02:45;;;;;;;11.88;9.52;;;8.10;99.90;;;;;;4987128;28;20084;-80
2024/03/11 05:05:12;;;;;;;10.80;8.95;;;8.10;65.60;;;;;;4970928;28;20054;-80
2024/03/11 05:07:39;;;;;;;10.52;8.88;;;8.10;1.00;;;;;;4986739;28;20054;-80
2024/03/11 05:10:07;;;;;;;16.52;13.57;;;8.10;1.00;;;;;;4989424;28;20046;-81
2024/03/11 05:12:35;;;;;;;15.48;12.73;;;8.10;99.90;;;;;;4990163;28;20120;-81
2024/03/11 05:15:09;;;;;;;16.63;12.82;;;8.10;99.90;;;;;;4989269;28;20564;-80
2024/03/11 05:17:37;;;;;;;20.17;14.13;;;8.10;1.00;;;;;;4991485;28;20053;-80
2024/03/11 05:20:11;;;;;;;15.98;12.55;;;8.10;1.00;;;;;;4990656;28;20057;-80
2024/03/11 05:22:41;;;;;;;15.55;12.30;;;8.10;1.00;;;;;;4991597;28;20104;-80
2024/03/11 05:25:09;;;;;;;17.73;12.40;;;8.10;99.90;;;;;;4990800;28;20045;-80
2024/03/11 05:27:36;;;;;;;15.90;12.05;;;8.10;1.00;;;;;;4989576;28;20049;-79
2024/03/11 05:30:06;;;;;;;14.40;11.00;;;8.10;1.00;;;;;;4988747;28;20041;-79
2024/03/11 05:32:34;;;;;;;19.52;14.32;;;8.10;1.00;;;;;;4989981;28;20116;-79
2024/03/11 05:35:01;;;;;;;16.05;11.93;;;8.10;99.90;;;;;;4990276;28;20155;-78
2024/03/11 05:37:28;;;;;;;16.23;13.02;;;8.10;1.00;;;;;;4989755;28;20081;-77
2024/03/11 05:39:55;;;;;;;16.77;13.10;;;8.10;99.90;;;;;;4990118;28;20390;-78
2024/03/11 05:42:22;;;;;;;15.57;12.05;;;8.10;1.00;;;;;;4989618;28;20054;-78
2024/03/11 05:44:49;;;;;;;16.02;12.85;;;8.10;1.00;;;;;;4981295;28;20045;-78
2024/03/11 05:47:16;;;;;;;21.05;16.27;;;8.10;1.00;;;;;;5005696;28;20104;-77
2024/03/11 05:49:43;;;;;;;18.25;14.30;;;8.10;99.90;;;;;;4990063;28;20473;-78
2024/03/11 05:52:10;;;;;;;23.38;16.17;;;8.10;1.00;;;;;;4990299;28;20061;-79
2024/03/11 05:54:50;;;;;;;23.88;17.42;;;8.00;1.00;;;;;;4988865;28;20045;-79
2024/03/11 05:57:29;;;;;;;27.17;19.23;;;8.00;1.00;;;;;;5004166;28;20453;-78
2024/03/11 06:00:00;;;;;;;25.30;19.27;;;8.00;91.40;;;;;;4976945;28;20047;-80
2024/03/11 06:02:26;;;;;;;27.80;20.38;;;8.00;99.90;;;;;;4986595;28;20050;-79
2024/03/11 06:04:53;;;;;;;23.40;17.17;;;8.00;99.90;;;;;;4964412;28;20045;-79
2024/03/11 06:07:23;;;;;;;24.00;18.63;;;8.00;1.00;;;;;;4980393;28;20061;-80
2024/03/11 06:09:51;;;;;;;23.42;18.38;;;8.00;1.00;;;;;;4983602;28;20046;-79
2024/03/11 06:12:19;;;;;;;22.50;15.95;;;8.00;48.50;;;;;;4969230;28;20151;-80
2024/03/11 06:14:47;;;;;;;23.13;16.92;;;8.00;99.40;;;;;;4981780;28;20050;-79
2024/03/11 06:17:15;;;;;;;19.70;15.02;;;8.00;99.90;;;;;;4954680;28;20065;-82
2024/03/11 06:19:44;;;;;;;23.48;17.00;;;8.00;99.90;;;;;;5001119;28;20073;-80
2024/03/11 06:22:15;;;;;;;24.17;17.80;;;8.00;99.90;;;;;;5001747;28;20056;-81
2024/03/11 06:24:42;;;;;;;27.40;18.77;;;8.00;99.90;;;;;;4983844;28;20135;-78
2024/03/11 06:27:09;;;;;;;21.13;16.15;;;8.00;1.00;;;;;;4993482;28;20047;-79
2024/03/11 06:29:36;;;;;;;20.83;15.38;;;8.00;1.00;;;;;;4984170;28;20085;-78
2024/03/11 06:32:07;;;;;;;20.15;15.52;;;8.00;1.00;;;;;;4954922;28;20069;-79
2024/03/11 06:34:34;;;;;;;20.58;14.88;;;8.00;1.00;;;;;;4988713;28;20052;-80
2024/03/11 06:37:02;;;;;;;23.92;17.58;;;8.10;1.00;;;;;;4988375;28;20405;-78
2024/03/11 06:39:31;;;;;;;25.08;18.35;;;8.00;1.00;;;;;;4988775;28;20065;-79
2024/03/11 06:42:00;;;;;;;32.42;21.98;;;8.00;32.10;;;;;;4988908;28;20334;-79
2024/03/11 06:44:28;;;;;;;33.20;23.85;;;8.00;99.90;;;;;;4987461;28;20050;-79
2024/03/11 06:47:08;;;;;;;29.48;20.42;;;7.90;99.90;;;;;;4989298;28;20145;-78
2024/03/11 06:49:36;;;;;;;30.75;22.38;;;8.00;99.90;;;;;;4987682;28;20048;-80
2024/03/11 06:52:05;;;;;;;29.40;20.27;;;7.90;99.90;;;;;;4985896;28;20133;-80
2024/03/11 06:54:33;;;;;;;23.95;18.52;;;7.90;1.00;;;;;;4986641;28;20096;-80
2024/03/11 06:57:00;;;;;;;22.45;17.17;;;8.00;1.00;;;;;;5002499;28;20061;-79
2024/03/11 06:59:31;;;;;;;20.33;15.02;;;8.00;1.00;;;;;;4986128;28;20048;-80
2024/03/11 07:01:58;;;;;;;18.50;14.60;;;8.00;1.00;;;;;;4988005;28;20050;-80
2024/03/11 07:04:25;;;;;;;22.67;17.42;;;8.10;99.90;;;;;;4985917;28;20104;-80
2024/03/11 07:06:52;;;;;;;22.83;17.15;;;8.10;99.90;;;;;;4987928;28;20057;-80
2024/03/11 07:09:19;;;;;;;25.45;17.98;;;8.10;99.90;;;;;;5002797;28;20757;-79
2024/03/11 07:11:46;;;;;;;21.20;15.70;;;8.00;1.00;;;;;;5000345;28;20104;-84
2024/03/11 07:14:13;;;;;;;22.02;17.17;;;8.10;1.00;;;;;;4982441;28;20141;-82
2024/03/11 07:16:43;;;;;;;24.73;18.40;;;8.10;99.90;;;;;;4974422;28;20785;-80
2024/03/11 07:19:10;;;;;;;27.63;20.45;;;8.10;99.90;;;;;;4997708;28;20053;-80
2024/03/11 07:21:38;;;;;;;24.52;18.67;;;8.00;99.90;;;;;;4987316;28;20050;-80
2024/03/11 07:24:06;;;;;;;29.30;21.45;;;8.00;1.00;;;;;;4987221;28;20054;-80
2024/03/11 07:26:34;;;;;;;23.60;18.75;;;8.00;99.90;;;;;;4988018;28;20113;-80
2024/03/11 07:29:02;;;;;;;25.58;18.13;;;8.00;1.00;;;;;;4985419;28;20050;-80
2024/03/11 07:31:29;;;;;;;28.10;19.70;;;8.00;1.00;;;;;;4985544;28;20045;-80
2024/03/11 07:33:56;;;;;;;22.95;17.20;;;8.00;1.00;;;;;;4983623;28;20563;-80
2024/03/11 07:36:24;;;;;;;29.45;21.13;;;8.00;1.00;;;;;;4985485;28;20112;-80
2024/03/11 07:38:54;;;;;;;22.10;16.95;;;8.00;1.00;;;;;;4986265;28;20089;-78
2024/03/11 07:41:24;;;;;;;35.28;25.92;;;8.10;57.80;;;;;;4983979;28;20539;-80
2024/03/11 07:43:52;;;;;;;30.13;22.52;;;8.00;1.00;;;;;;4982599;28;20054;-81
2024/03/11 07:46:19;;;;;;;29.50;23.02;;;8.00;1.00;;;;;;5003617;28;20188;-80
2024/03/11 07:48:46;;;;;;;33.47;24.95;;;8.10;27.80;;;;;;4987307;28;20145;-78
2024/03/11 07:51:14;;;;;;;31.75;22.85;;;8.00;1.00;;;;;;4987850;28;20052;-80
2024/03/11 07:53:41;;;;;;;40.22;26.70;;;8.00;1.00;;;;;;4986839;28;20053;-80
2024/03/11 07:56:09;;;;;;;38.53;27.25;;;8.00;1.00;;;;;;4987693;28;20082;-81
2024/03/11 07:58:36;;;;;;;34.88;23.67;;;8.00;1.00;;;;;;4985308;28;20046;-80
2024/03/11 08:01:04;;;;;;;31.05;23.85;;;8.00;68.70;;;;;;4987510;28;20143;-80
2024/03/11 08:03:31;;;;;;;25.00;18.30;;;8.00;10.50;;;;;;4974530;28;20054;-80
2024/03/11 08:05:58;;;;;;;34.03;25.10;;;8.10;20.40;;;;;;4983678;28;20458;-78
2024/03/11 08:08:26;;;;;;;33.38;25.75;;;8.00;1.00;;;;;;4998802;28;20057;-78
2024/03/11 08:10:53;;;;;;;32.50;24.33;;;8.00;1.00;;;;;;4967752;28;20054;-78
2024/03/11 08:13:21;;;;;;;32.97;24.13;;;8.00;1.00;;;;;;4992815;28;20497;-78
2024/03/11 08:15:48;;;;;;;32.85;23.60;;;8.10;1.00;;;;;;4986766;28;20049;-78
2024/03/11 08:18:16;;;;;;;34.75;25.70;;;8.10;1.00;;;;;;4986682;28;20494;-78
2024/03/11 08:20:44;;;;;;;31.23;23.73;;;8.00;99.90;;;;;;4986986;28;20070;-78
2024/03/11 08:23:11;;;;;;;27.13;20.67;;;8.00;1.00;;;;;;4986459;28;20141;-78
2024/03/11 08:25:44;;;;;;;26.23;20.27;;;8.10;1.00;;;;;;4986834;28;20679;-78
2024/03/11 08:28:14;;;;;;;25.92;18.48;;;8.10;99.90;;;;;;4986081;28;20050;-78
2024/03/11 08:30:42;;;;;;;26.80;20.42;;;8.10;99.90;;;;;;4987893;28;20046;-77
2024/03/11 08:33:12;;;;;;;34.40;24.00;;;8.10;99.90;;;;;;4986093;28;20054;-78
2024/03/11 08:35:41;;;;;;;31.80;23.27;;;8.10;1.00;;;;;;4987207;28;20533;-80
2024/03/11 08:38:08;;;;;;;39.65;27.42;;;8.10;1.00;;;;;;4987174;28;20057;-78
2024/03/11 08:40:38;;;;;;;33.65;24.50;;;8.10;99.90;;;;;;4986785;28;20104;-78
2024/03/11 08:43:05;;;;;;;36.95;27.70;;;8.10;99.90;;;;;;4984874;28;20722;-78
2024/03/11 08:45:33;;;;;;;35.75;26.23;;;8.00;99.90;;;;;;4989546;28;20448;-79
2024/03/11 08:48:00;;;;;;;31.08;22.35;;;8.10;99.90;;;;;;4990314;28;20496;-78
2024/03/11 08:50:27;;;;;;;26.40;19.08;;;8.10;99.90;;;;;;4990739;28;20160;-78
2024/03/11 08:52:54;;;;;;;23.55;18.58;;;8.10;99.90;;;;;;4990197;28;20061;-81
2024/03/11 08:55:21;;;;;;;34.35;25.40;;;8.20;99.90;;;;;;4990305;28;20042;-79
2024/03/11 08:57:53;;;;;;;32.83;23.40;;;8.20;99.90;;;;;;4989594;28;20111;-78
2024/03/11 09:00:27;;;;;;;39.47;26.98;;;8.10;1.00;;;;;;4991279;28;20049;-78
2024/03/11 09:02:54;;;;;;;28.15;20.67;;;8.10;32.60;;;;;;4991159;28;20429;-79
2024/03/11 09:05:22;;;;;;;27.48;21.05;;;8.10;99.90;;;;;;4990358;28;20077;-79
2024/03/11 09:07:51;;;;;;;25.67;19.17;;;8.20;1.00;;;;;;4990220;28;20062;-79
2024/03/11 09:10:18;;;;;;;21.05;17.27;;;8.20;1.00;;;;;;4990203;28;20062;-78
2024/03/11 09:12:45;;;;;;;26.38;18.98;;;8.20;1.00;;;;;;4989200;28;20050;-78
2024/03/11 09:15:15;;;;;;;29.95;22.15;;;8.20;99.90;;;;;;4989052;28;20062;-78
2024/03/11 09:17:47;;;;;;;25.63;19.85;;;8.20;99.90;;;;;;4990571;28;20143;-79
2024/03/11 09:20:19;;;;;;;30.80;21.95;;;8.20;99.90;;;;;;4990640;28;20128;-78
2024/03/11 09:22:55;;;;;;;35.85;24.83;;;8.20;1.00;;;;;;4990078;28;20046;-79
2024/03/11 09:25:24;;;;;;;29.30;22.33;;;8.20;99.90;;;;;;4990432;28;20454;-78
2024/03/11 09:28:03;;;;;;;29.83;22.08;;;8.20;1.00;;;;;;4987885;28;20077;-78
2024/03/11 09:30:33;;;;;;;24.27;18.08;;;8.20;99.90;;;;;;4991357;28;20049;-79
2024/03/11 09:33:01;;;;;;;19.30;16.20;;;8.30;1.00;;;;;;4989315;28;20344;-79
2024/03/11 09:35:28;;;;;;;24.50;17.83;;;8.40;99.90;;;;;;4989581;28;20065;-79
2024/03/11 09:37:56;;;;;;;24.48;18.55;;;8.40;49.70;;;;;;4989068;28;20061;-79
2024/03/11 09:40:26;;;;;;;24.58;18.30;;;8.30;11.10;;;;;;4990339;28;20582;-79
2024/03/11 09:42:55;;;;;;;37.03;24.90;;;8.40;1.00;;;;;;4988290;28;20041;-79
2024/03/11 09:45:26;;;;;;;28.10;21.13;;;8.30;99.90;;;;;;4989929;28;20109;-78
2024/03/11 09:47:56;;;;;;;24.40;18.95;;;8.30;1.00;;;;;;4989017;28;20064;-79
2024/03/11 09:50:26;;;;;;;34.80;24.73;;;8.30;99.90;;;;;;4990468;28;20661;-78
2024/03/11 09:52:58;;;;;;;31.63;23.33;;;8.30;99.90;;;;;;4988922;28;20480;-79
2024/03/11 09:55:28;;;;;;;30.80;22.92;;;8.30;99.90;;;;;;4987773;28;20811;-78
2024/03/11 09:58:06;;;;;;;32.47;23.60;;;8.30;99.90;;;;;;4985434;28;20125;-80
2024/03/11 10:00:34;;;;;;;33.80;24.85;;;8.30;99.90;;;;;;5002240;28;20060;-80
2024/03/11 10:03:06;;;;;;;35.03;24.30;;;8.30;99.90;;;;;;5016865;28;20099;-81
2024/03/11 10:05:36;;;;;;;31.38;22.95;;;8.30;99.90;;;;;;4988493;28;20042;-79
2024/03/11 10:08:04;;;;;;;26.10;19.23;;;8.30;1.00;;;;;;4988402;28;20084;-79
2024/03/11 10:10:32;;;;;;;23.02;18.38;;;8.40;99.90;;;;;;5003415;28;20242;-81
2024/03/11 10:13:00;;;;;;;29.77;20.70;;;8.50;99.90;;;;;;5001522;28;20378;-79
2024/03/11 10:15:29;;;;;;;26.45;18.10;;;8.50;99.90;;;;;;5004538;28;20417;-79
2024/03/11 10:18:08;;;;;;;27.63;21.05;;;8.50;99.90;;;;;;5004473;28;20484;-79
2024/03/11 10:20:35;;;;;;;31.50;21.85;;;8.40;99.90;;;;;;4997716;28;20049;-80
2024/03/11 10:23:09;;;;;;;26.63;19.92;;;8.40;99.90;;;;;;5002028;28;20757;-87
2024/03/11 10:25:40;;;;;;;23.15;18.67;;;8.50;1.00;;;;;;5015726;28;20046;-77
2024/03/11 10:28:06;;;;;;;19.75;15.93;;;8.50;1.00;;;;;;4983120;28;20058;-78
2024/03/11 10:30:33;;;;;;;23.40;17.98;;;8.50;1.00;;;;;;5004557;28;20050;-77
2024/03/11 10:33:03;;;;;;;25.85;19.48;;;8.50;99.90;;;;;;4981091;28;20054;-77
2024/03/11 10:35:34;;;;;;;24.13;17.80;;;8.60;1.00;;;;;;4983347;28;20053;-77
2024/03/11 10:38:12;;;;;;;28.25;19.38;;;8.60;1.00;;;;;;4981335;28;20046;-78
2024/03/11 10:40:39;;;;;;;28.20;21.05;;;8.50;99.90;;;;;;4982065;28;20785;-76
2024/03/11 10:43:35;;;;;;;39.97;27.35;;;8.50;1.00;;;;;;4963545;28;20559;-77
2024/03/11 10:46:15;;;;;;;36.17;23.95;;;8.40;1.00;;;;;;4962210;28;20059;-77
2024/03/11 10:48:42;;;;;;;25.42;20.08;;;8.40;1.00;;;;;;4947435;28;20132;-77
2024/03/11 10:51:09;;;;;;;26.98;20.20;;;8.50;99.90;;;;;;4930413;28;20072;-77
2024/03/11 10:53:36;;;;;;;27.75;19.35;;;8.50;1.00;;;;;;4967217;28;20081;-77
2024/03/11 10:56:07;;;;;;;27.00;19.90;;;8.50;1.00;;;;;;4965182;28;20079;-77
2024/03/11 10:58:34;;;;;;;22.25;16.33;;;8.50;1.00;;;;;;4982470;28;20050;-77
2024/03/11 11:01:01;;;;;;;30.52;21.05;;;8.50;1.00;;;;;;4984616;28;20046;-77
2024/03/11 11:03:30;;;;;;;24.70;18.35;;;8.50;99.90;;;;;;4966339;28;20804;-77
2024/03/11 11:06:01;;;;;;;26.70;20.92;;;8.50;99.90;;;;;;4964394;28;20065;-77
2024/03/11 11:08:32;;;;;;;33.45;23.30;;;8.50;1.00;;;;;;4981706;28;20046;-77
2024/03/11 11:11:00;;;;;;;34.75;22.92;;;8.50;1.00;;;;;;4983710;28;20100;-77
2024/03/11 11:13:31;;;;;;;30.35;21.65;;;8.50;99.90;;;;;;4982775;28;20058;-77
2024/03/11 11:16:00;;;;;;;26.02;19.60;;;8.50;21.50;;;;;;4968379;28;20054;-77
2024/03/11 11:18:27;;;;;;;27.58;21.08;;;8.50;99.90;;;;;;4968050;28;20046;-77
2024/03/11 11:20:54;;;;;;;24.40;18.60;;;8.50;99.90;;;;;;4981593;28;20090;-77
2024/03/11 11:23:27;;;;;;;31.98;22.80;;;8.50;1.00;;;;;;4964448;28;20058;-77
2024/03/11 11:25:58;;;;;;;30.27;21.88;;;8.60;99.90;;;;;;4981017;28;20047;-77
2024/03/11 11:28:29;;;;;;;33.42;22.23;;;8.50;99.90;;;;;;4963202;28;20137;-77
2024/03/11 11:31:14;;;;;;;27.40;20.25;;;8.50;99.90;;;;;;4968039;28;20050;-76
2024/03/11 11:33:57;;;;;;;26.40;18.52;;;8.60;99.90;;;;;;4986563;28;20042;-77
2024/03/11 11:36:30;;;;;;;26.13;20.88;;;8.60;99.90;;;;;;5003743;28;20085;-77
2024/03/11 11:39:20;;;;;;;25.33;19.10;;;8.70;99.90;;;;;;5004146;28;20533;-77
2024/03/11 11:41:49;;;;;;;27.05;20.42;;;8.70;1.00;;;;;;4992341;28;20050;-78
2024/03/11 11:44:27;;;;;;;23.65;18.85;;;8.70;1.00;;;;;;4985853;28;20053;-77
2024/03/11 11:47:03;;;;;;;19.33;15.48;;;8.70;1.00;;;;;;5001443;28;20049;-77
2024/03/11 11:49:34;;;;;;;28.15;20.27;;;8.80;1.00;;;;;;4997797;28;20145;-76
2024/03/11 11:52:02;;;;;;;27.58;20.25;;;8.80;99.90;;;;;;5002775;28;20187;-77
2024/03/11 11:54:32;;;;;;;24.52;19.13;;;8.80;99.90;;;;;;4980538;28;20516;-77
2024/03/11 11:57:16;;;;;;;35.53;24.65;;;8.80;99.90;;;;;;4981284;28;20060;-77
2024/03/11 12:00:03;;;;;;;30.00;22.55;;;8.80;99.90;;;;;;4996473;28;20552;-78
2024/03/11 12:02:33;;;;;;;26.80;19.48;;;8.80;99.90;;;;;;4996478;28;20062;-78
2024/03/11 12:05:00;;;;;;;28.45;21.23;;;8.80;99.90;;;;;;4994914;28;20365;-78
2024/03/11 12:07:28;;;;;;;25.30;18.48;;;8.80;99.90;;;;;;5009035;28;20103;-78
2024/03/11 12:10:01;;;;;;;23.88;17.17;;;8.80;99.90;;;;;;4977918;28;20103;-78
2024/03/11 12:12:30;;;;;;;22.08;17.60;;;8.90;99.90;;;;;;4979454;28;20047;-78
2024/03/11 12:14:57;;;;;;;20.77;16.30;;;8.90;93.40;;;;;;4988490;28;20055;-78
2024/03/11 12:17:29;;;;;;;29.08;20.33;;;8.80;30.90;;;;;;4981107;28;20129;-77
2024/03/11 12:20:14;;;;;;;25.40;19.38;;;8.90;42.80;;;;;;4999828;28;20046;-77
2024/03/11 12:22:41;;;;;;;27.42;19.77;;;8.80;84.20;;;;;;4983390;28;20050;-77
2024/03/11 12:25:13;;;;;;;20.67;15.85;;;8.80;93.70;;;;;;4999418;28;20053;-77
2024/03/11 12:27:44;;;;;;;29.13;18.70;;;8.90;68.10;;;;;;4984100;28;20050;-77
2024/03/11 12:30:24;;;;;;;25.25;17.45;;;8.90;44.50;;;;;;4982682;28;20737;-76
2024/03/11 12:32:57;;;;;;;22.67;17.73;;;8.90;74.50;;;;;;5015398;28;20061;-76
2024/03/11 12:35:32;;;;;;;28.20;19.48;;;9.00;1.00;;;;;;4986034;28;20042;-76
2024/03/11 12:38:00;;;;;;;33.75;23.35;;;8.90;1.00;;;;;;5004591;28;20606;-75
2024/03/11 12:40:34;;;;;;;32.75;22.38;;;9.00;1.00;;;;;;5021062;28;20048;-77
2024/03/11 12:43:22;;;;;;;31.83;22.77;;;9.10;1.00;;;;;;5016485;28;20555;-77
2024/03/11 12:45:54;;;;;;;28.73;20.48;;;9.00;1.00;;;;;;4999740;28;20054;-76
2024/03/11 12:48:23;;;;;;;31.88;20.48;;;9.00;1.00;;;;;;5017814;28;20125;-76
2024/03/11 12:50:53;;;;;;;30.58;20.50;;;9.10;99.90;;;;;;4991629;28;20551;-76
2024/03/11 12:53:23;;;;;;;26.30;19.02;;;9.10;1.00;;;;;;4988089;28;20050;-76